Terminal Aerodrome Forecast
Issued by NWS

Home | Current Version | Previous Version | Text Only | Print | Product List | Glossary On
Versions: 1 2 3 4 5 6 7 8 9 10 11 12 13
000
FTUS44 KMAF 250540
TAFINK
TAF
KINK 250540Z 2506/2606 14010KT P6SM SCT100 BKN150
     FM250700 04023G30KT P6SM BKN100
     FM250900 03023G30KT P6SM OVC018
     FM251700 03015G24KT P6SM OVC020
     FM252000 36009KT P6SM SCT040 SCT150=

USA.gov is the U.S. government's official web portal to all federal, state and local government web resources and services.